Time;durP1;ratioP1;P1;durP2;ratioP2;P2;SDS_P1;SDS_P2;PMS_P1;PMS_P2;Temp;Humidity;BMP_temperature;BMP_pressure;BME280_temperature;BME280_humidity;BME280_pressure;Samples;Min_cycle;Max_cycle;Signal;HPM_P1;HPM_P2
2022/06/14 00:02:51;;;;;;;8.80;2.13;;;11.90;99.90;;;;;;4864427;29;20449;-85
2022/06/14 00:05:17;;;;;;;7.07;2.05;;;11.80;99.90;;;;;;4831536;29;20225;-84
2022/06/14 00:07:42;;;;;;;10.30;2.42;;;11.90;99.90;;;;;;4846051;29;20139;-85
2022/06/14 00:10:08;;;;;;;8.35;2.45;;;11.90;99.90;;;;;;4846700;29;20058;-85
2022/06/14 00:12:34;;;;;;;8.23;2.30;;;11.90;99.90;;;;;;4908580;29;20048;-84
2022/06/14 00:15:00;;;;;;;7.97;2.35;;;11.90;99.90;;;;;;4867122;29;20073;-84
2022/06/14 00:17:26;;;;;;;8.18;2.40;;;11.90;99.90;;;;;;4909024;29;20108;-84
2022/06/14 00:19:51;;;;;;;8.20;2.40;;;11.90;99.90;;;;;;4846328;29;20045;-84
2022/06/14 00:22:17;;;;;;;8.45;2.20;;;11.80;99.90;;;;;;4862363;29;20373;-84
2022/06/14 00:24:43;;;;;;;7.85;2.10;;;11.80;99.90;;;;;;4842780;29;20041;-84
2022/06/14 00:27:08;;;;;;;7.75;2.20;;;11.90;99.90;;;;;;4892956;29;20500;-84
2022/06/14 00:29:34;;;;;;;8.75;2.20;;;11.90;99.90;;;;;;4854944;29;20045;-84
2022/06/14 00:32:00;;;;;;;5.78;1.92;;;11.80;99.90;;;;;;4886416;29;20088;-85
2022/06/14 00:34:26;;;;;;;8.85;2.00;;;11.80;99.90;;;;;;4892303;29;20171;-85
2022/06/14 00:36:56;;;;;;;7.20;2.00;;;11.80;99.90;;;;;;4875492;29;20041;-84
2022/06/14 00:39:22;;;;;;;7.43;2.20;;;11.80;99.90;;;;;;4876370;29;20179;-84
2022/06/14 00:41:50;;;;;;;7.60;2.10;;;11.70;99.90;;;;;;4882683;29;20508;-85
2022/06/14 00:44:26;;;;;;;7.38;1.90;;;11.70;99.90;;;;;;4860249;29;20099;-84
2022/06/14 00:47:09;;;;;;;6.47;2.00;;;11.70;99.90;;;;;;4877349;29;20040;-85
2022/06/14 00:49:50;;;;;;;11.35;3.05;;;11.60;99.90;;;;;;4861279;29;20045;-85
2022/06/14 00:52:20;;;;;;;9.20;2.65;;;11.60;99.90;;;;;;4865414;29;20044;-84
2022/06/14 00:54:51;;;;;;;6.95;2.00;;;11.50;99.90;;;;;;4872607;29;20049;-85
2022/06/14 00:57:26;;;;;;;6.95;2.33;;;11.40;99.90;;;;;;4860222;29;20048;-84
2022/06/14 01:00:18;;;;;;;8.07;2.17;;;11.40;99.90;;;;;;4878850;29;20045;-84
2022/06/14 01:02:50;;;;;;;6.40;2.23;;;11.40;99.90;;;;;;4867483;29;20059;-84
2022/06/14 01:05:18;;;;;;;;;;;11.40;99.90;;;;;;4903561;29;20331;-85
2022/06/14 01:07:48;;;;;;;9.43;2.30;;;11.40;99.90;;;;;;4878683;29;19926;-85
2022/06/14 01:10:25;;;;;;;7.22;2.40;;;11.30;99.90;;;;;;4880025;29;20044;-85
2022/06/14 01:12:55;;;;;;;7.82;2.30;;;11.30;99.90;;;;;;4878951;29;20037;-85
2022/06/14 01:15:27;;;;;;;6.53;1.90;;;11.20;99.90;;;;;;4880508;29;20093;-85
2022/06/14 01:17:58;;;;;;;;;;;11.10;99.90;;;;;;4865029;29;20054;-85
2022/06/14 01:20:24;;;;;;;7.93;2.22;;;11.00;99.90;;;;;;4864410;29;19919;-84
2022/06/14 01:22:51;;;;;;;6.78;2.20;;;11.00;99.90;;;;;;4863912;29;20223;-85
2022/06/14 01:25:18;;;;;;;7.93;2.50;;;11.40;99.90;;;;;;4911699;29;20041;-85
2022/06/14 01:27:44;;;;;;;8.30;2.78;;;11.00;99.90;;;;;;4895347;29;20040;-85
2022/06/14 01:30:14;;;;;;;7.53;2.17;;;11.00;99.90;;;;;;4864911;29;20041;-85
2022/06/14 01:32:50;;;;;;;7.82;2.25;;;11.00;99.90;;;;;;4864573;29;20069;-84
2022/06/14 01:35:23;;;;;;;7.35;2.30;;;11.00;99.90;;;;;;4880033;29;20509;-84
2022/06/14 01:37:52;;;;;;;5.53;1.70;;;11.00;99.90;;;;;;4899671;29;20453;-84
2022/06/14 01:40:36;;;;;;;8.32;2.20;;;11.00;99.90;;;;;;4864051;29;20048;-84
2022/06/14 01:43:09;;;;;;;8.25;2.30;;;11.00;99.90;;;;;;4864439;29;20052;-85
2022/06/14 01:45:46;;;;;;;7.07;2.30;;;10.90;99.90;;;;;;4879890;29;20052;-84
2022/06/14 01:48:25;;;;;;;6.68;2.15;;;10.90;99.90;;;;;;4864414;29;20041;-84
2022/06/14 01:54:48;;;;;;;7.07;2.20;;;10.80;99.90;;;;;;4877100;29;20151;-85
2022/06/14 01:57:37;;;;;;;6.47;2.40;;;10.70;99.90;;;;;;4879790;29;20036;-85
2022/06/14 02:00:05;;;;;;;5.80;2.30;;;10.70;99.90;;;;;;4879693;29;20120;-84
2022/06/14 02:02:38;;;;;;;8.43;2.70;;;10.70;99.90;;;;;;4880118;29;20036;-84
2022/06/14 02:05:19;;;;;;;7.30;2.40;;;10.70;99.90;;;;;;4863783;29;20487;-84
2022/06/14 02:07:56;;;;;;;7.10;2.70;;;10.70;99.90;;;;;;4878513;29;20044;-84
2022/06/14 02:10:26;;;;;;;6.88;2.40;;;10.60;99.90;;;;;;4910891;29;20057;-84
2022/06/14 02:13:26;;;;;;;7.95;2.40;;;10.60;99.90;;;;;;4879670;29;20070;-84
2022/06/14 02:16:07;;;;;;;6.03;2.17;;;10.50;99.90;;;;;;4910338;29;20060;-84
2022/06/14 02:18:49;;;;;;;6.05;2.20;;;10.60;99.90;;;;;;4879923;29;20102;-83
2022/06/14 02:21:45;;;;;;;5.85;2.15;;;10.50;99.90;;;;;;4878615;29;20076;-84
2022/06/14 02:24:23;;;;;;;6.63;2.22;;;10.50;99.90;;;;;;4863614;29;20528;-84
2022/06/14 02:27:09;;;;;;;9.05;2.67;;;10.50;99.90;;;;;;4887069;29;20037;-84
2022/06/14 02:29:52;;;;;;;8.38;2.65;;;10.50;99.90;;;;;;4869536;29;20528;-84
2022/06/14 02:32:46;;;;;;;13.63;3.92;;;10.50;99.90;;;;;;4872108;29;20103;-84
2022/06/14 02:35:27;;;;;;;9.23;2.80;;;10.50;99.90;;;;;;4878763;29;20080;-84
2022/06/14 02:38:07;;;;;;;8.70;2.42;;;10.50;99.90;;;;;;4878550;29;20076;-84
2022/06/14 02:40:45;;;;;;;9.15;3.35;;;10.50;99.90;;;;;;4878528;29;20044;-84
2022/06/14 02:43:19;;;;;;;9.00;3.30;;;10.50;99.90;;;;;;4863684;29;20048;-84
2022/06/14 02:45:57;;;;;;;9.05;3.70;;;10.40;99.90;;;;;;4878423;29;20172;-84
2022/06/14 02:48:33;;;;;;;9.55;3.30;;;10.40;99.90;;;;;;4878983;29;20040;-84
2022/06/14 02:51:28;;;;;;;9.02;3.22;;;10.30;99.90;;;;;;4882614;29;20040;-84
2022/06/14 02:53:56;;;;;;;9.18;3.10;;;10.80;99.90;;;;;;4866609;29;20055;-83
2022/06/14 02:56:28;;;;;;;9.18;4.18;;;10.30;99.90;;;;;;4878598;29;20123;-83
2022/06/14 02:58:58;;;;;;;8.73;3.90;;;10.20;99.90;;;;;;4863433;29;20087;-84
2022/06/14 03:01:27;;;;;;;10.05;3.60;;;10.20;99.90;;;;;;4859816;29;20160;-83
2022/06/14 03:04:01;;;;;;;9.30;3.80;;;10.20;99.90;;;;;;4863566;29;20084;-84
2022/06/14 03:06:50;;;;;;;11.65;4.85;;;10.10;99.90;;;;;;4893541;29;20043;-83
2022/06/14 03:09:20;;;;;;;10.63;3.90;;;10.10;99.90;;;;;;4894395;29;20116;-83
2022/06/14 03:12:04;;;;;;;8.90;3.22;;;10.10;99.90;;;;;;4872354;29;20067;-84
2022/06/14 03:14:46;;;;;;;9.70;3.30;;;10.20;99.90;;;;;;4872108;29;20052;-84
2022/06/14 03:17:39;;;;;;;9.02;3.85;;;10.20;99.90;;;;;;4861018;29;20081;-84
2022/06/14 03:20:31;;;;;;;11.15;4.10;;;10.10;99.90;;;;;;4877690;29;20036;-84
2022/06/14 03:23:04;;;;;;;8.98;4.20;;;10.10;99.90;;;;;;4894326;29;20490;-84
2022/06/14 03:25:40;;;;;;;13.77;6.18;;;10.00;99.90;;;;;;4878661;29;20392;-84
2022/06/14 03:28:22;;;;;;;10.98;4.57;;;10.00;99.90;;;;;;4910507;29;20087;-83
2022/06/14 03:30:58;;;;;;;11.23;4.38;;;9.90;99.90;;;;;;4862602;29;20196;-84
2022/06/14 03:33:37;;;;;;;13.55;5.05;;;10.00;99.90;;;;;;4869114;29;20037;-83
2022/06/14 03:36:04;;;;;;;10.73;4.57;;;10.00;99.90;;;;;;4884423;29;20084;-85
2022/06/14 03:38:40;;;;;;;9.73;4.60;;;10.00;99.90;;;;;;4893805;29;20381;-84
2022/06/14 03:41:08;;;;;;;11.40;5.05;;;10.00;99.90;;;;;;4877841;29;20045;-84
2022/06/14 03:43:36;;;;;;;14.35;5.50;;;10.10;99.90;;;;;;4847236;29;20052;-84
2022/06/14 03:46:19;;;;;;;9.45;4.30;;;10.00;99.90;;;;;;4844402;29;20385;-84
2022/06/14 03:48:48;;;;;;;10.13;4.25;;;10.10;99.90;;;;;;4874740;29;20194;-84
2022/06/14 03:51:33;;;;;;;9.68;4.18;;;10.10;99.90;;;;;;4862270;29;20066;-84
2022/06/14 03:54:22;;;;;;;12.43;5.57;;;10.10;99.90;;;;;;4850814;29;20037;-84
2022/06/14 03:57:24;;;;;;;12.07;5.55;;;10.10;99.90;;;;;;4863044;29;20404;-83
2022/06/14 03:59:53;;;;;;;12.07;4.75;;;10.10;99.90;;;;;;4906976;29;20128;-83
2022/06/14 04:02:55;;;;;;;13.50;5.20;;;10.10;99.90;;;;;;4862694;29;20070;-83
2022/06/14 04:05:27;;;;;;;12.77;5.35;;;10.10;99.90;;;;;;4877748;29;20048;-83
2022/06/14 04:08:07;;;;;;;13.35;4.95;;;10.10;99.90;;;;;;4878499;29;20052;-83
2022/06/14 04:10:49;;;;;;;12.27;5.78;;;10.20;99.90;;;;;;4878928;29;20442;-83
2022/06/14 04:13:40;;;;;;;13.95;5.70;;;10.20;99.90;;;;;;4874619;29;20044;-84
2022/06/14 04:16:35;;;;;;;11.27;5.05;;;10.20;99.90;;;;;;4892473;29;20045;-83
2022/06/14 04:19:07;;;;;;;12.30;4.93;;;10.20;99.90;;;;;;4854090;29;20445;-83
2022/06/14 04:21:48;;;;;;;12.50;5.72;;;10.20;99.90;;;;;;4877055;29;20048;-83
2022/06/14 04:24:37;;;;;;;9.77;4.57;;;10.20;99.90;;;;;;4868389;29;20036;-83
2022/06/14 04:27:17;;;;;;;10.95;4.70;;;10.30;99.90;;;;;;4891859;29;20056;-83
2022/06/14 04:29:52;;;;;;;12.00;5.18;;;10.30;99.90;;;;;;4862708;29;20064;-84
2022/06/14 04:32:26;;;;;;;12.40;5.07;;;10.30;99.90;;;;;;4860971;29;20051;-84
2022/06/14 04:35:07;;;;;;;11.57;5.35;;;10.30;99.90;;;;;;4880372;29;20100;-84
2022/06/14 04:37:44;;;;;;;11.35;5.03;;;10.30;99.90;;;;;;4881337;29;20128;-84
2022/06/14 04:40:17;;;;;;;13.27;5.45;;;10.30;99.90;;;;;;4882611;29;20107;-84
2022/06/14 04:43:01;;;;;;;13.73;5.90;;;10.40;99.90;;;;;;4865910;29;20135;-83
2022/06/14 04:45:40;;;;;;;13.18;5.68;;;10.40;99.90;;;;;;4882783;29;20464;-83
2022/06/14 04:48:15;;;;;;;14.52;5.75;;;10.50;99.90;;;;;;4871286;29;20524;-83
2022/06/14 04:51:06;;;;;;;10.27;5.80;;;10.60;99.90;;;;;;4880149;29;20119;-84
2022/06/14 04:53:44;;;;;;;13.43;5.28;;;10.70;99.90;;;;;;4865991;29;20048;-83
2022/06/14 04:56:17;;;;;;;15.32;6.22;;;10.70;99.90;;;;;;4865889;29;20040;-83
2022/06/14 04:58:56;;;;;;;14.07;6.53;;;10.80;99.90;;;;;;4865204;29;20513;-83
2022/06/14 05:01:48;;;;;;;13.80;5.90;;;10.90;99.90;;;;;;4864138;29;20044;-84
2022/06/14 05:04:18;;;;;;;;;;;11.30;99.90;;;;;;4852288;29;20352;-83
2022/06/14 05:07:10;;;;;;;9.95;5.82;;;11.70;99.90;;;;;;4868584;29;20039;-83
2022/06/14 05:09:59;;;;;;;10.93;5.30;;;12.00;99.90;;;;;;4870212;29;20071;-83
2022/06/14 05:12:36;;;;;;;11.63;5.05;;;12.50;99.90;;;;;;4896308;29;20374;-83
2022/06/14 05:15:15;;;;;;;13.10;5.40;;;12.90;99.90;;;;;;4879287;29;20032;-84
2022/06/14 05:17:49;;;;;;;11.82;5.13;;;13.10;99.90;;;;;;4879948;29;20198;-84
2022/06/14 05:20:35;;;;;;;11.80;4.95;;;13.50;99.90;;;;;;4880623;29;20055;-84
2022/06/14 05:23:23;;;;;;;10.43;5.15;;;14.00;99.90;;;;;;4868563;29;20264;-84
2022/06/14 05:25:58;;;;;;;11.48;4.75;;;14.30;99.90;;;;;;4862595;29;20092;-84
2022/06/14 05:28:53;;;;;;;10.98;4.57;;;14.80;99.90;;;;;;4875285;29;20055;-84
2022/06/14 05:31:37;;;;;;;11.25;4.20;;;15.70;99.90;;;;;;4873796;29;20044;-84
2022/06/14 05:34:34;;;;;;;11.95;4.20;;;16.10;99.90;;;;;;4889024;29;20139;-84
2022/06/14 05:37:16;;;;;;;12.40;4.70;;;16.30;99.90;;;;;;4877041;29;20088;-84
2022/06/14 05:39:56;;;;;;;9.60;4.28;;;16.40;99.90;;;;;;4871066;29;20045;-84
2022/06/14 05:42:27;;;;;;;9.43;3.97;;;16.80;99.90;;;;;;4871506;29;20036;-84
2022/06/14 05:44:58;;;;;;;8.17;3.80;;;16.70;99.90;;;;;;4897064;29;20541;-84
2022/06/14 05:47:33;;;;;;;11.23;4.10;;;17.00;99.90;;;;;;4859863;29;20036;-83
2022/06/14 05:50:06;;;;;;;11.05;3.88;;;18.00;99.90;;;;;;4877264;29;20471;-84
2022/06/14 05:52:56;;;;;;;9.00;3.75;;;18.80;99.90;;;;;;4858978;29;20421;-84
2022/06/14 05:55:35;;;;;;;9.43;3.58;;;19.60;97.90;;;;;;4872165;29;20044;-84
2022/06/14 05:58:31;;;;;;;9.27;3.28;;;19.20;98.40;;;;;;4873216;29;20064;-84
2022/06/14 06:01:00;;;;;;;11.27;3.75;;;19.30;99.20;;;;;;4868780;29;20448;-85
2022/06/14 06:03:45;;;;;;;10.82;3.95;;;19.00;99.40;;;;;;4875332;29;20047;-85
2022/06/14 06:06:24;;;;;;;9.15;3.40;;;19.40;99.60;;;;;;4856218;29;20037;-84
2022/06/14 06:09:03;;;;;;;11.23;3.58;;;19.90;97.00;;;;;;4856300;29;20480;-85
2022/06/14 06:11:37;;;;;;;11.38;4.10;;;19.90;97.00;;;;;;4872204;29;20052;-85
2022/06/14 06:14:28;;;;;;;11.23;3.40;;;20.00;92.50;;;;;;4867452;29;20137;-85
2022/06/14 06:17:03;;;;;;;9.93;3.83;;;20.10;97.90;;;;;;4865029;29;20120;-85
2022/06/14 06:19:47;;;;;;;12.95;3.60;;;20.70;90.40;;;;;;4857562;29;20120;-85
2022/06/14 06:22:23;;;;;;;9.85;3.42;;;20.60;89.30;;;;;;4889482;29;20445;-84
2022/06/14 06:24:56;;;;;;;9.90;3.20;;;21.00;93.20;;;;;;4889410;29;20150;-85
2022/06/14 06:27:28;;;;;;;10.77;3.58;;;20.60;91.80;;;;;;4872732;29;20048;-85
2022/06/14 06:32:26;;;;;;;9.32;3.35;;;20.40;93.50;;;;;;4846622;29;20500;-78
2022/06/14 06:34:52;;;;;;;10.45;3.45;;;20.30;93.10;;;;;;4855320;29;20072;-78
2022/06/14 06:37:36;;;;;;;9.75;3.30;;;20.50;92.60;;;;;;4859233;29;20045;-78
2022/06/14 06:40:06;;;;;;;11.23;2.90;;;20.80;92.10;;;;;;4858361;29;20045;-78
2022/06/14 06:42:44;;;;;;;10.18;2.92;;;20.70;90.30;;;;;;4859725;29;20041;-78
2022/06/14 06:45:14;;;;;;;10.55;2.80;;;21.10;81.80;;;;;;4861281;29;20045;-78
2022/06/14 06:47:52;;;;;;;10.10;2.53;;;21.50;89.90;;;;;;4842376;29;20076;-78
2022/06/14 06:50:49;;;;;;;8.60;2.55;;;22.30;80.90;;;;;;4857451;29;20152;-78
2022/06/14 06:53:23;;;;;;;8.98;2.50;;;22.30;79.80;;;;;;4855043;29;20381;-78
2022/06/14 06:55:48;;;;;;;7.13;2.50;;;22.30;74.10;;;;;;4859209;29;20053;-78
2022/06/14 06:58:23;;;;;;;10.32;2.65;;;22.30;76.70;;;;;;4852809;29;20106;-78
2022/06/14 07:00:53;;;;;;;10.15;2.70;;;22.00;74.80;;;;;;4854062;29;20434;-78
2022/06/14 07:03:19;;;;;;;10.75;2.47;;;21.40;81.40;;;;;;4875317;29;20041;-80
2022/06/14 07:05:52;;;;;;;10.07;2.60;;;21.70;83.70;;;;;;4860271;29;20074;-81
2022/06/14 07:08:38;;;;;;;7.95;2.50;;;21.50;83.40;;;;;;4878120;29;20056;-80
2022/06/14 07:11:05;;;;;;;9.38;2.50;;;21.50;78.90;;;;;;4860761;29;20113;-80
2022/06/14 07:13:44;;;;;;;9.75;2.88;;;21.80;83.80;;;;;;4832599;29;20037;-80
2022/06/14 07:16:22;;;;;;;10.40;2.60;;;22.10;77.60;;;;;;4863278;29;20068;-80
2022/06/14 07:19:04;;;;;;;9.77;2.42;;;22.30;75.90;;;;;;4857048;29;20103;-80
2022/06/14 07:21:41;;;;;;;9.73;2.50;;;22.10;82.10;;;;;;4865315;29;20489;-79
2022/06/14 07:24:28;;;;;;;7.57;2.42;;;22.50;74.60;;;;;;4851790;29;20061;-79
2022/06/14 07:27:05;;;;;;;7.68;2.40;;;22.20;73.20;;;;;;4866602;29;20045;-79
2022/06/14 07:29:37;;;;;;;8.35;2.13;;;21.80;80.00;;;;;;4847783;29;20121;-79
2022/06/14 07:32:32;;;;;;;6.97;1.95;;;22.30;83.80;;;;;;4862454;29;20060;-79
2022/06/14 07:35:00;;;;;;;9.00;2.00;;;22.70;77.30;;;;;;4840650;29;20541;-79
2022/06/14 07:37:26;;;;;;;9.60;2.30;;;23.00;72.60;;;;;;4828686;29;20089;-79
2022/06/14 07:40:24;;;;;;;7.15;2.00;;;23.40;72.10;;;;;;4842174;29;20133;-79
2022/06/14 07:43:05;;;;;;;6.95;2.10;;;22.60;64.80;;;;;;4826099;29;20065;-80
2022/06/14 07:45:48;;;;;;;6.63;1.70;;;22.00;67.80;;;;;;4839479;29;20032;-80
2022/06/14 07:48:17;;;;;;;7.57;1.90;;;21.40;73.20;;;;;;4842653;29;20045;-79
2022/06/14 07:50:47;;;;;;;7.32;2.00;;;20.80;74.90;;;;;;4828812;29;20106;-80
2022/06/14 07:53:35;;;;;;;9.93;2.05;;;20.50;81.40;;;;;;4829170;29;20038;-79
2022/06/14 07:56:19;;;;;;;8.10;2.00;;;21.00;79.70;;;;;;4846527;29;20042;-80
2022/06/14 07:58:51;;;;;;;7.38;1.92;;;21.20;74.90;;;;;;4843797;29;20058;-80
2022/06/14 08:01:26;;;;;;;8.10;2.17;;;20.90;77.70;;;;;;4829825;29;20052;-81
2022/06/14 08:04:26;;;;;;;6.68;2.13;;;20.70;79.90;;;;;;4844383;29;20482;-80
2022/06/14 08:07:00;;;;;;;7.32;1.80;;;20.20;75.20;;;;;;4863115;29;20431;-80
2022/06/14 08:09:40;;;;;;;8.43;2.20;;;19.70;79.80;;;;;;4838837;29;20728;-80
2022/06/14 10:44:25;;;;;;;6.82;1.40;;;21.70;58.30;;;;;;5043352;23;20074;-78
2022/06/14 10:47:09;;;;;;;5.47;1.38;;;21.70;55.10;;;;;;5069761;23;20051;-79
2022/06/14 10:50:17;;;;;;;6.32;1.58;;;21.40;60.60;;;;;;4909068;28;20050;-79
2022/06/14 10:53:09;;;;;;;5.35;1.50;;;21.30;64.20;;;;;;4924243;28;20044;-79
2022/06/14 10:58:27;;;;;;;7.10;1.52;;;20.60;64.10;;;;;;5115031;23;20670;31
2022/06/14 11:01:15;;;;;;;5.88;1.40;;;20.40;66.80;;;;;;4876930;23;20060;-80
2022/06/14 11:04:11;;;;;;;6.28;1.50;;;20.40;70.90;;;;;;4855734;29;20052;-80
2022/06/14 11:07:14;;;;;;;5.15;1.50;;;20.40;71.10;;;;;;4865612;29;20391;-79
2022/06/14 11:10:12;;;;;;;5.05;1.40;;;20.30;68.60;;;;;;4874842;29;20060;-80
2022/06/14 11:12:41;;;;;;;6.22;1.50;;;20.70;71.00;;;;;;4880079;29;20052;-80
2022/06/14 11:15:15;;;;;;;5.35;1.40;;;21.30;74.00;;;;;;4875771;29;20064;-81
2022/06/14 11:18:06;;;;;;;5.57;1.50;;;21.70;73.50;;;;;;4867592;29;20518;-81
2022/06/14 11:20:46;;;;;;;5.30;1.60;;;22.00;69.90;;;;;;4881219;29;20104;-80
2022/06/14 11:23:22;;;;;;;7.00;1.63;;;21.90;68.20;;;;;;4883712;29;20044;-80
2022/06/14 11:26:15;;;;;;;5.07;1.35;;;21.70;67.90;;;;;;4980224;23;20064;-78
2022/06/14 11:29:00;;;;;;;5.05;1.58;;;21.50;69.20;;;;;;4870157;29;20132;-78
2022/06/14 11:31:45;;;;;;;5.03;1.40;;;21.50;69.60;;;;;;4868581;29;20052;-78
2022/06/14 11:34:36;;;;;;;6.60;1.70;;;21.60;64.70;;;;;;4861613;29;20910;-78
2022/06/14 11:37:19;;;;;;;6.47;1.55;;;21.30;64.40;;;;;;4863303;29;20044;-78
2022/06/14 11:39:52;;;;;;;4.65;1.50;;;21.10;64.50;;;;;;4879352;29;20526;-78
2022/06/14 11:42:26;;;;;;;4.50;1.40;;;21.10;66.50;;;;;;4881057;29;20049;-77
2022/06/14 11:45:29;;;;;;;6.18;1.60;;;21.00;73.10;;;;;;4872003;29;20144;-78
2022/06/14 11:48:13;;;;;;;6.85;1.50;;;21.10;66.30;;;;;;4874086;29;20054;-78
2022/06/14 11:51:17;;;;;;;6.05;1.60;;;21.10;68.90;;;;;;4858070;29;20040;-78
2022/06/14 11:53:59;;;;;;;5.00;1.42;;;20.80;63.90;;;;;;4851819;29;20067;-78
2022/06/14 11:56:42;;;;;;;5.63;1.77;;;21.10;67.90;;;;;;4862757;29;20520;-78
2022/06/14 11:59:17;;;;;;;6.60;1.70;;;21.10;63.40;;;;;;4859887;29;20040;-78
2022/06/14 12:01:49;;;;;;;5.65;1.50;;;21.50;63.20;;;;;;4853558;29;20045;-78
2022/06/14 12:04:21;;;;;;;;;;;21.60;65.50;;;;;;4863237;29;20048;-78
2022/06/14 12:06:46;;;;;;;6.38;1.63;;;21.70;66.10;;;;;;4893183;29;19923;-78
2022/06/14 12:09:56;;;;;;;5.68;1.40;;;22.00;67.30;;;;;;4861349;29;20492;-78
2022/06/14 12:12:42;;;;;;;5.93;1.60;;;22.20;62.30;;;;;;4875979;29;20084;-78
2022/06/14 12:15:26;;;;;;;5.95;1.33;;;22.40;64.30;;;;;;4876079;29;20051;-78
2022/06/14 12:17:55;;;;;;;4.93;1.30;;;22.60;64.60;;;;;;4880144;29;20176;-78
2022/06/14 12:20:25;;;;;;;6.30;1.50;;;22.80;64.40;;;;;;4861348;29;20040;-78
2022/06/14 12:23:09;;;;;;;5.90;1.30;;;23.10;61.70;;;;;;4875640;29;20063;-78
2022/06/14 12:28:58;;;;;;;5.93;1.30;;;23.50;54.60;;;;;;4852721;29;20053;-78
2022/06/14 12:32:03;;;;;;;5.43;1.30;;;23.50;51.50;;;;;;4858428;29;20029;-78
2022/06/14 12:34:40;;;;;;;5.93;1.50;;;23.10;51.30;;;;;;4836980;29;20144;-78
2022/06/14 12:37:29;;;;;;;5.18;1.40;;;23.40;54.60;;;;;;4862039;29;20064;-78
2022/06/14 12:40:01;;;;;;;4.38;1.23;;;23.30;52.50;;;;;;4857107;29;20102;-78
2022/06/14 12:42:53;;;;;;;5.78;1.40;;;23.30;53.30;;;;;;4864779;29;20060;-78
2022/06/14 12:45:29;;;;;;;5.20;1.35;;;22.90;53.50;;;;;;4860621;29;20076;-78
2022/06/14 12:48:18;;;;;;;6.20;1.50;;;22.70;52.60;;;;;;4859520;29;20072;-78
2022/06/14 12:50:54;;;;;;;6.60;1.50;;;22.40;54.40;;;;;;4863456;29;20036;-78
2022/06/14 12:53:58;;;;;;;5.82;1.58;;;22.00;55.50;;;;;;4858599;29;20048;-78
2022/06/14 12:56:58;;;;;;;5.25;1.30;;;21.90;52.90;;;;;;4860596;29;20087;-78
2022/06/14 12:59:43;;;;;;;5.05;1.60;;;21.60;58.40;;;;;;4866619;29;20459;-78
2022/06/14 13:02:16;;;;;;;32.80;2.60;;;21.70;60.00;;;;;;4864333;29;20540;-78
2022/06/14 13:04:52;;;;;;;4.35;1.30;;;21.80;60.20;;;;;;4856311;29;20371;-78
2022/06/14 13:07:54;;;;;;;4.90;1.40;;;21.90;59.50;;;;;;4864631;29;20120;-78
2022/06/14 13:10:29;;;;;;;;;;;22.20;59.20;;;;;;4865489;29;20043;-77
2022/06/14 13:13:29;;;;;;;5.57;1.30;;;22.50;61.90;;;;;;4868578;29;20371;-78
2022/06/14 13:16:14;;;;;;;5.07;1.25;;;22.80;52.80;;;;;;4863126;29;20524;-77
2022/06/14 13:18:54;;;;;;;5.63;1.20;;;22.20;52.20;;;;;;4871356;29;20250;-78
2022/06/14 13:21:44;;;;;;;3.83;1.10;;;21.80;51.90;;;;;;4858428;29;20063;-77
2022/06/14 13:24:24;;;;;;;4.32;1.13;;;21.80;51.40;;;;;;4857484;29;20069;-77
2022/06/14 13:27:27;;;;;;;4.13;1.30;;;21.50;54.10;;;;;;4869562;29;20052;-77
2022/06/14 13:30:22;;;;;;;4.70;1.23;;;21.40;57.40;;;;;;4872865;29;20052;-78
2022/06/14 13:32:58;;;;;;;5.53;1.40;;;21.60;54.10;;;;;;4875206;29;20104;-77
2022/06/14 13:35:47;;;;;;;6.03;1.40;;;21.70;57.50;;;;;;4873354;29;20492;-78
2022/06/14 13:38:48;;;;;;;4.75;1.40;;;21.80;53.00;;;;;;4876442;29;20169;-77
2022/06/14 13:41:37;;;;;;;4.78;1.33;;;21.50;54.20;;;;;;4862971;29;20052;-77
2022/06/14 13:44:05;;;;;;;5.45;1.50;;;21.50;56.40;;;;;;4861858;29;20503;-77
2022/06/14 13:46:46;;;;;;;5.00;1.40;;;21.80;57.50;;;;;;4894754;29;20480;-77
2022/06/14 13:49:34;;;;;;;5.15;1.40;;;22.10;55.50;;;;;;4879784;29;20037;-77
2022/06/14 13:52:12;;;;;;;5.38;1.30;;;22.60;56.00;;;;;;4877070;29;20053;-78
2022/06/14 13:54:49;;;;;;;5.40;1.42;;;22.80;56.60;;;;;;4889244;29;20048;-77
2022/06/14 13:57:39;;;;;;;6.43;1.45;;;23.00;54.60;;;;;;4880530;29;20040;-77
2022/06/14 14:00:08;;;;;;;4.30;1.20;;;22.90;56.70;;;;;;4879672;29;20430;-77
2022/06/14 14:02:56;;;;;;;5.45;1.38;;;23.00;56.80;;;;;;4878002;29;20088;-77
2022/06/14 14:05:30;;;;;;;5.95;1.50;;;23.20;57.30;;;;;;4891341;29;20069;-77
2022/06/14 14:08:23;;;;;;;5.63;1.40;;;23.20;58.40;;;;;;4879047;29;20621;-78
2022/06/14 14:11:01;;;;;;;7.35;1.38;;;22.50;55.40;;;;;;4880578;29;20048;-77
2022/06/14 14:13:48;;;;;;;7.03;1.40;;;22.30;55.70;;;;;;4879460;29;20041;-78
2022/06/14 14:16:49;;;;;;;4.85;1.30;;;22.30;58.20;;;;;;4865191;29;20052;-78
2022/06/14 14:19:27;;;;;;;6.43;1.60;;;22.30;58.40;;;;;;4868356;29;20071;-77
2022/06/14 14:22:17;;;;;;;6.50;1.50;;;21.90;58.60;;;;;;4863513;29;20036;-77
2022/06/14 14:24:53;;;;;;;5.93;1.33;;;21.80;57.00;;;;;;4879503;29;20056;-77
2022/06/14 14:27:55;;;;;;;5.75;1.30;;;22.00;57.60;;;;;;4848300;29;20177;-77
2022/06/14 14:30:23;;;;;;;5.10;1.30;;;21.90;55.60;;;;;;4862434;29;20048;-77
2022/06/14 14:33:00;;;;;;;5.75;1.40;;;21.50;56.40;;;;;;4861031;29;20484;-77
2022/06/14 14:35:34;;;;;;;5.53;1.20;;;21.30;57.90;;;;;;4860928;29;20397;-77
2022/06/14 14:38:12;;;;;;;6.35;1.40;;;21.20;60.40;;;;;;4861184;29;20076;-77
2022/06/14 14:41:32;;;;;;;4.95;1.30;;;21.30;61.80;;;;;;4842888;29;20488;-77
2022/06/14 14:43:31;;;;;;;6.20;1.20;;;21.40;62.40;;;;;;4857549;29;20071;-78
2022/06/14 14:46:09;;;;;;;4.85;1.17;;;21.50;61.00;;;;;;4828393;29;20045;-77
2022/06/14 14:48:47;;;;;;;5.22;1.35;;;21.50;59.00;;;;;;4855803;29;20041;-77
2022/06/14 14:51:35;;;;;;;5.72;1.40;;;21.60;62.10;;;;;;4854946;29;20132;-77
2022/06/14 14:54:06;;;;;;;5.18;1.20;;;21.60;61.10;;;;;;4844062;29;20069;-77
2022/06/14 14:56:35;;;;;;;4.90;1.30;;;21.70;61.50;;;;;;4857569;29;20535;-77
2022/06/14 14:59:15;;;;;;;5.70;1.40;;;21.70;60.70;;;;;;4851489;29;20083;-77
2022/06/14 15:07:37;;;;;;;5.97;1.48;;;21.80;59.20;;;;;;4859222;29;20060;-77
2022/06/14 15:10:06;;;;;;;5.63;1.50;;;21.80;60.30;;;;;;4851526;29;20044;-77
2022/06/14 15:12:47;;;;;;;5.07;1.50;;;21.80;59.40;;;;;;4858690;29;20498;-77
2022/06/14 15:15:20;;;;;;;5.78;1.40;;;22.00;59.70;;;;;;4841874;29;20041;-77
2022/06/14 15:20:45;;;;;;;4.20;1.35;;;21.60;61.90;;;;;;4861234;29;20071;-77
2022/06/14 15:23:29;;;;;;;6.13;1.48;;;21.60;60.10;;;;;;4855906;29;20045;-77
2022/06/14 15:25:56;;;;;;;5.88;1.30;;;21.50;61.20;;;;;;4857808;29;20143;-77
2022/06/14 15:28:39;;;;;;;5.50;1.40;;;21.30;63.30;;;;;;4883363;29;20044;-77
2022/06/14 15:31:04;;;;;;;6.00;1.40;;;21.40;66.50;;;;;;4881083;29;20043;-76
2022/06/14 15:33:35;;;;;;;4.70;1.40;;;21.60;64.00;;;;;;4847223;29;20484;-77
2022/06/14 15:36:13;;;;;;;5.97;1.20;;;21.90;61.00;;;;;;4876562;29;20628;-78
2022/06/14 15:38:41;;;;;;;4.80;1.40;;;21.90;62.60;;;;;;4877478;29;20284;-77
2022/06/14 15:41:26;;;;;;;7.20;1.30;;;22.20;56.40;;;;;;4873314;29;20118;-77
2022/06/14 15:44:13;;;;;;;5.05;1.40;;;22.20;60.20;;;;;;4859087;29;20099;-77
2022/06/14 15:46:51;;;;;;;6.25;1.50;;;22.30;60.00;;;;;;4859214;29;20052;-78
2022/06/14 15:49:26;;;;;;;5.50;1.38;;;22.20;57.50;;;;;;4878580;29;20101;-78
2022/06/14 15:51:53;;;;;;;4.30;1.20;;;22.30;59.10;;;;;;4861490;29;20119;-78
2022/06/14 15:54:22;;;;;;;5.18;1.30;;;22.40;59.50;;;;;;4886650;29;20108;-79
2022/06/14 15:57:05;;;;;;;4.68;1.48;;;21.90;59.20;;;;;;4875753;29;20496;-78
2022/06/14 15:59:37;;;;;;;6.18;1.38;;;22.00;59.50;;;;;;4872122;29;20168;-78
2022/06/14 16:02:20;;;;;;;3.92;1.20;;;22.00;56.20;;;;;;4876696;29;20124;-78
2022/06/14 16:04:52;;;;;;;5.10;1.38;;;21.70;58.40;;;;;;4875820;29;20048;-78
2022/06/14 16:07:49;;;;;;;4.60;1.25;;;21.50;58.30;;;;;;4859388;29;20040;-78
2022/06/14 16:10:26;;;;;;;4.35;1.30;;;21.70;60.20;;;;;;4861299;29;20056;-78
2022/06/14 16:12:56;;;;;;;4.28;1.13;;;21.90;59.90;;;;;;4878514;29;20040;-78
2022/06/14 16:15:37;;;;;;;6.13;1.50;;;22.00;61.50;;;;;;4874298;29;20107;-78
2022/06/14 16:18:31;;;;;;;5.63;1.58;;;21.90;59.00;;;;;;4865176;29;20036;-78
2022/06/14 16:21:12;;;;;;;3.88;1.20;;;22.00;58.10;;;;;;4858095;29;20049;-78
2022/06/14 16:23:41;;;;;;;5.82;1.40;;;21.90;57.80;;;;;;4877202;29;20071;-78
2022/06/14 16:26:21;;;;;;;4.28;1.30;;;21.70;59.00;;;;;;4876444;29;20084;-77
2022/06/14 16:29:02;;;;;;;5.85;1.55;;;21.40;60.50;;;;;;4865792;29;20095;-77
2022/06/14 16:31:31;;;;;;;5.53;1.48;;;21.50;61.00;;;;;;4879379;29;20092;-78
2022/06/14 16:34:12;;;;;;;5.68;1.30;;;21.50;63.70;;;;;;4862183;29;20048;-78
2022/06/14 16:36:55;;;;;;;5.20;1.33;;;21.70;62.90;;;;;;4861796;29;20041;-77
2022/06/14 16:39:21;;;;;;;6.50;1.33;;;21.90;60.00;;;;;;4863150;29;20040;-78
2022/06/14 16:42:28;;;;;;;5.25;1.27;;;22.00;60.30;;;;;;4879116;29;20044;-77